Track Масный Дмитрий

Time Latitude Longitude Accuracy (66% radius in meters) Altitude (meters) Speed (km/hour) Bearing (degrees) Battery (%) GPS flag
07:21:56 57.203238 60.119487 0 0 0 0 1 delete
07:21:55 57.203183 60.119497 0 0 0 0 1 delete
07:21:54 57.203122 60.119497 0 0 0 0 1 delete
07:21:53 57.203055 60.119497 0 0 0 0 1 delete
07:21:52 57.202983 60.119488 0 0 0 0 1 delete
07:21:51 57.202910 60.119463 0 0 0 0 1 delete
07:21:50 57.202832 60.119417 0 0 0 0 1 delete
07:21:49 57.202755 60.119362 0 0 0 0 1 delete
07:21:48 57.202687 60.119298 0 0 0 0 1 delete
07:21:47 57.202620 60.119240 0 0 0 0 1 delete
07:21:46 57.202563 60.119177 0 0 0 0 1 delete
07:21:45 57.202508 60.119105 0 0 0 0 1 delete
07:21:44 57.202462 60.119008 0 0 0 0 1 delete
07:21:43 57.202422 60.118902 0 0 0 0 1 delete
07:21:42 57.202390 60.118792 0 0 0 0 1 delete
07:21:41 57.202363 60.118685 0 0 0 0 1 delete
07:21:40 57.202342 60.118580 0 0 0 0 1 delete
07:21:39 57.202327 60.118472 0 0 0 0 1 delete
07:21:38 57.202317 60.118363 0 0 0 0 1 delete
07:21:37 57.202313 60.118258 0 0 0 0 1 delete
07:21:36 57.202315 60.118167 0 0 0 0 1 delete
07:21:35 57.202317 60.118090 0 0 0 0 1 delete
07:21:34 57.202320 60.118022 0 0 0 0 1 delete
07:21:33 57.202318 60.117952 0 0 0 0 1 delete
07:21:32 57.202313 60.117883 0 0 0 0 1 delete
07:21:31 57.202293 60.117813 0 0 0 0 1 delete
07:21:30 57.202267 60.117738 0 0 0 0 1 delete
07:21:29 57.202232 60.117657 0 0 0 0 1 delete
07:21:28 57.202197 60.117580 0 0 0 0 1 delete
07:21:27 57.202158 60.117507 0 0 0 0 1 delete
07:21:26 57.202117 60.117425 0 0 0 0 1 delete
07:21:25 57.202072 60.117357 0 0 0 0 1 delete
07:21:24 57.202025 60.117288 0 0 0 0 1 delete
07:21:23 57.201980 60.117235 0 0 0 0 1 delete
07:21:22 57.201938 60.117188 0 0 0 0 1 delete
07:21:21 57.201903 60.117137 0 0 0 0 1 delete
07:21:20 57.201872 60.117087 0 0 0 0 1 delete
07:21:19 57.201843 60.117035 0 0 0 0 1 delete
07:21:18 57.201813 60.116982 0 0 0 0 1 delete
07:21:17 57.201787 60.116920 0 0 0 0 1 delete
07:21:16 57.201758 60.116848 0 0 0 0 1 delete
07:21:15 57.201725 60.116778 0 0 0 0 1 delete
07:21:14 57.201687 60.116717 0 0 0 0 1 delete
07:21:13 57.201643 60.116670 0 0 0 0 1 delete
07:21:12 57.201600 60.116637 0 0 0 0 1 delete
07:21:11 57.201557 60.116608 0 0 0 0 1 delete
07:21:10 57.201517 60.116578 0 0 0 0 1 delete
07:21:09 57.201480 60.116548 0 0 0 0 1 delete
07:21:08 57.201447 60.116517 0 0 0 0 1 delete
07:21:07 57.201413 60.116480 0 0 0 0 1 delete